KLRO/LRO METAR and TAF weather

Enter ICAO airport designator
Station Type Date Time Source
KLRO METAR 2023/01/30 10:15 UTC NOAA

KLRO 301015Z AUTO 00000KT 1 3/4SM +RA OVC003 14/14 A3016 RMK AO2


Station Type Date Time Source
KLRO Decoded METAR 2023/01/30 10:15 UTC NOAA

Station name not available
Jan 30, 2023 - 05:15 AM EST / 2023.01.30 1015 UTC
Wind: Calm:0
Visibility: 1 3/4 mile(s):0
Sky conditions: overcast
Weather: heavy rain
Temperature: 57 F (14 C)
Dew Point: 57 F (14 C)
Relative Humidity: 100%
Pressure (altimeter): 30.16 in. Hg (1021 hPa)
ob: KLRO 301015Z AUTO 00000KT 1 3/4SM +RA OVC003 14/14 A3016 RMK AO2
cycle: 10

Station Type Date Time Source
KLRO TAF UTC NOAA

Error!

Example: see airport list